sensor_id;sensor_type;location;lat;lon;timestamp;pressure;altitude;pressure_sealevel;temperature;humidity
46023;BME280;31756;47.936;16.224;2023-01-28T00:01:09;98981.22;;;-1.71;100.00
46023;BME280;31756;47.936;16.224;2023-01-28T00:03:37;98982.09;;;-1.70;100.00
46023;BME280;31756;47.936;16.224;2023-01-28T00:06:06;98981.50;;;-1.63;100.00
46023;BME280;31756;47.936;16.224;2023-01-28T00:08:32;98965.03;;;-1.79;100.00
46023;BME280;31756;47.936;16.224;2023-01-28T00:11:00;98983.91;;;-1.66;100.00
46023;BME280;31756;47.936;16.224;2023-01-28T00:13:26;98979.69;;;-1.67;100.00
46023;BME280;31756;47.936;16.224;2023-01-28T00:15:55;98989.03;;;-1.63;100.00
46023;BME280;31756;47.936;16.224;2023-01-28T00:18:22;98988.06;;;-1.67;100.00
46023;BME280;31756;47.936;16.224;2023-01-28T00:21:09;98983.94;;;-1.65;100.00
46023;BME280;31756;47.936;16.224;2023-01-28T00:23:37;98982.09;;;-1.70;100.00
46023;BME280;31756;47.936;16.224;2023-01-28T00:26:07;98953.97;;;-1.84;100.00
46023;BME280;31756;47.936;16.224;2023-01-28T00:28:32;98982.97;;;-1.68;100.00
46023;BME280;31756;47.936;16.224;2023-01-28T00:31:08;98980.84;;;-1.58;100.00
46023;BME280;31756;47.936;16.224;2023-01-28T00:33:35;98983.91;;;-1.66;100.00
46023;BME280;31756;47.936;16.224;2023-01-28T00:36:02;98983.94;;;-1.65;100.00
46023;BME280;31756;47.936;16.224;2023-01-28T00:38:28;98972.06;;;-1.69;100.00
46023;BME280;31756;47.936;16.224;2023-01-28T00:40:54;98976.31;;;-1.68;100.00
46023;BME280;31756;47.936;16.224;2023-01-28T00:43:22;98982.13;;;-1.69;100.00
46023;BME280;31756;47.936;16.224;2023-01-28T00:45:47;98979.78;;;-1.64;100.00
46023;BME280;31756;47.936;16.224;2023-01-28T00:48:13;98954.22;;;-1.76;100.00
46023;BME280;31756;47.936;16.224;2023-01-28T00:50:38;98974.56;;;-1.70;100.00
46023;BME280;31756;47.936;16.224;2023-01-28T00:53:04;98965.63;;;-1.62;100.00
46023;BME280;31756;47.936;16.224;2023-01-28T00:55:30;98972.13;;;-1.67;100.00
46023;BME280;31756;47.936;16.224;2023-01-28T00:57:56;98969.63;;;-1.67;100.00
46023;BME280;31756;47.936;16.224;2023-01-28T01:00:21;98964.81;;;-1.61;100.00
46023;BME280;31756;47.936;16.224;2023-01-28T01:02:51;98938.97;;;-1.82;100.00
46023;BME280;31756;47.936;16.224;2023-01-28T01:05:17;98974.88;;;-1.61;100.00
46023;BME280;31756;47.936;16.224;2023-01-28T01:07:43;98943.28;;;-1.78;100.00
46023;BME280;31756;47.936;16.224;2023-01-28T01:10:15;98970.31;;;-1.71;100.00
46023;BME280;31756;47.936;16.224;2023-01-28T01:12:41;98974.66;;;-1.67;100.00
46023;BME280;31756;47.936;16.224;2023-01-28T01:15:08;98983.31;;;-1.59;100.00
46023;BME280;31756;47.936;16.224;2023-01-28T01:17:38;98960.88;;;-1.78;100.00
46023;BME280;31756;47.936;16.224;2023-01-28T01:20:07;98993.28;;;-1.61;100.00
46023;BME280;31756;47.936;16.224;2023-01-28T01:22:35;98989.28;;;-1.56;100.00
46023;BME280;31756;47.936;16.224;2023-01-28T01:25:03;98986.75;;;-1.57;100.00
46023;BME280;31756;47.936;16.224;2023-01-28T01:27:29;98983.31;;;-1.59;100.00
46023;BME280;31756;47.936;16.224;2023-01-28T01:29:57;98990.16;;;-1.55;100.00
46023;BME280;31756;47.936;16.224;2023-01-28T01:32:24;98990.06;;;-1.58;100.00
46023;BME280;31756;47.936;16.224;2023-01-28T01:34:50;99001.84;;;-1.56;100.00
46023;BME280;31756;47.936;16.224;2023-01-28T01:37:16;98975.59;;;-1.64;100.00
46023;BME280;31756;47.936;16.224;2023-01-28T01:39:41;98996.81;;;-1.56;100.00
46023;BME280;31756;47.936;16.224;2023-01-28T01:42:12;98999.44;;;-1.53;100.00
46023;BME280;31756;47.936;16.224;2023-01-28T01:45:02;99009.50;;;-1.53;100.00
46023;BME280;31756;47.936;16.224;2023-01-28T01:47:34;98977.31;;;-1.63;100.00
46023;BME280;31756;47.936;16.224;2023-01-28T01:52:47;98997.91;;;-1.49;100.00
46023;BME280;31756;47.936;16.224;2023-01-28T01:55:17;98972.91;;;-1.70;100.00
46023;BME280;31756;47.936;16.224;2023-01-28T01:57:49;98987.28;;;-1.66;100.00
46023;BME280;31756;47.936;16.224;2023-01-28T02:00:16;98971.13;;;-1.72;100.00
46023;BME280;31756;47.936;16.224;2023-01-28T02:02:47;98996.94;;;-1.53;100.00
46023;BME280;31756;47.936;16.224;2023-01-28T02:05:17;98974.66;;;-1.67;100.00
46023;BME280;31756;47.936;16.224;2023-01-28T02:07:44;98970.31;;;-1.71;100.00
46023;BME280;31756;47.936;16.224;2023-01-28T02:10:12;98971.13;;;-1.72;100.00
46023;BME280;31756;47.936;16.224;2023-01-28T02:12:50;99009.38;;;-1.57;100.00
46023;BME280;31756;47.936;16.224;2023-01-28T02:15:19;98980.38;;;-1.71;100.00
46023;BME280;31756;47.936;16.224;2023-01-28T02:17:47;99005.88;;;-1.61;100.00
46023;BME280;31756;47.936;16.224;2023-01-28T02:28:40;98970.41;;;-1.68;100.00
46023;BME280;31756;47.936;16.224;2023-01-28T02:31:17;98968.75;;;-1.68;100.00
46023;BME280;31756;47.936;16.224;2023-01-28T02:33:53;98979.69;;;-1.67;100.00
46023;BME280;31756;47.936;16.224;2023-01-28T02:36:28;99005.22;;;-1.55;100.00
46023;BME280;31756;47.936;16.224;2023-01-28T02:39:02;99003.66;;;-1.52;100.00
46023;BME280;31756;47.936;16.224;2023-01-28T02:41:36;98983.78;;;-1.69;100.00
46023;BME280;31756;47.936;16.224;2023-01-28T02:44:05;98993.44;;;-1.58;100.00
46023;BME280;31756;47.936;16.224;2023-01-28T02:49:38;98978.06;;;-1.65;100.00
46023;BME280;31756;47.936;16.224;2023-01-28T02:53:02;98997.69;;;-1.55;100.00
46023;BME280;31756;47.936;16.224;2023-01-28T02:58:41;98964.38;;;-1.73;100.00
46023;BME280;31756;47.936;16.224;2023-01-28T03:01:24;99006.09;;;-1.55;100.00
46023;BME280;31756;47.936;16.224;2023-01-28T03:03:56;99001.69;;;-1.60;100.00
46023;BME280;31756;47.936;16.224;2023-01-28T03:06:34;98977.81;;;-1.73;100.00
46023;BME280;31756;47.936;16.224;2023-01-28T03:09:08;98999.19;;;-1.60;100.00
46023;BME280;31756;47.936;16.224;2023-01-28T03:11:52;98997.34;;;-1.66;100.00
46023;BME280;31756;47.936;16.224;2023-01-28T03:14:38;98983.78;;;-1.69;100.00
46023;BME280;31756;47.936;16.224;2023-01-28T03:20:16;98981.44;;;-1.89;100.00
46023;BME280;31756;47.936;16.224;2023-01-28T03:23:09;99000.56;;;-1.68;100.00
46023;BME280;31756;47.936;16.224;2023-01-28T03:25:55;99011.31;;;-1.72;100.00
46023;BME280;31756;47.936;16.224;2023-01-28T03:28:45;99010.44;;;-1.74;100.00
46023;BME280;31756;47.936;16.224;2023-01-28T03:31:32;99007.06;;;-1.75;100.00
46023;BME280;31756;47.936;16.224;2023-01-28T03:34:19;98984.75;;;-1.90;100.00
46023;BME280;31756;47.936;16.224;2023-01-28T03:37:05;99009.31;;;-1.82;100.00
46023;BME280;31756;47.936;16.224;2023-01-28T03:39:35;99004.28;;;-1.82;100.00
46023;BME280;31756;47.936;16.224;2023-01-28T03:42:13;98994.06;;;-1.87;100.00
46023;BME280;31756;47.936;16.224;2023-01-28T03:44:54;99010.38;;;-1.76;100.00
46023;BME280;31756;47.936;16.224;2023-01-28T03:47:24;99011.69;;;-1.86;100.00
46023;BME280;31756;47.936;16.224;2023-01-28T03:49:52;99001.81;;;-1.81;100.00
46023;BME280;31756;47.936;16.224;2023-01-28T03:52:23;99009.16;;;-1.87;100.00
46023;BME280;31756;47.936;16.224;2023-01-28T03:54:50;99013.34;;;-1.86;100.00
46023;BME280;31756;47.936;16.224;2023-01-28T03:57:20;99013.19;;;-1.91;100.00
46023;BME280;31756;47.936;16.224;2023-01-28T03:59:47;99014.91;;;-1.90;100.00
46023;BME280;31756;47.936;16.224;2023-01-28T04:02:15;98989.34;;;-2.02;100.00
46023;BME280;31756;47.936;16.224;2023-01-28T04:04:42;99018.00;;;-1.97;100.00
46023;BME280;31756;47.936;16.224;2023-01-28T04:07:10;99009.50;;;-2.00;100.00
46023;BME280;31756;47.936;16.224;2023-01-28T04:09:55;99011.94;;;-2.02;100.00
46023;BME280;31756;47.936;16.224;2023-01-28T04:12:39;99015.25;;;-2.03;100.00
46023;BME280;31756;47.936;16.224;2023-01-28T04:15:06;98993.81;;;-2.17;100.00
46023;BME280;31756;47.936;16.224;2023-01-28T04:17:45;98994.59;;;-2.18;100.00
46023;BME280;31756;47.936;16.224;2023-01-28T04:20:15;99016.09;;;-2.02;100.00
46023;BME280;31756;47.936;16.224;2023-01-28T04:22:41;98985.69;;;-2.10;100.00
46023;BME280;31756;47.936;16.224;2023-01-28T04:25:09;99012.13;;;-1.97;100.00
46023;BME280;31756;47.936;16.224;2023-01-28T04:27:35;99012.03;;;-1.99;100.00
46023;BME280;31756;47.936;16.224;2023-01-28T04:30:10;99017.06;;;-1.99;100.00
46023;BME280;31756;47.936;16.224;2023-01-28T04:32:42;99013.84;;;-1.96;100.00
46023;BME280;31756;47.936;16.224;2023-01-28T04:35:31;99011.16;;;-2.01;100.00
46023;BME280;31756;47.936;16.224;2023-01-28T04:38:05;99018.88;;;-1.95;100.00
46023;BME280;31756;47.936;16.224;2023-01-28T04:40:56;99017.13;;;-1.97;100.00
46023;BME280;31756;47.936;16.224;2023-01-28T04:43:25;99018.59;;;-2.04;100.00
46023;BME280;31756;47.936;16.224;2023-01-28T04:46:15;99005.69;;;-2.13;100.00
46023;BME280;31756;47.936;16.224;2023-01-28T04:49:02;98995.50;;;-2.16;100.00
46023;BME280;31756;47.936;16.224;2023-01-28T04:51:30;99024.44;;;-2.03;100.00
46023;BME280;31756;47.936;16.224;2023-01-28T04:54:16;99029.88;;;-1.93;100.00
46023;BME280;31756;47.936;16.224;2023-01-28T04:56:42;99038.19;;;-1.94;100.00
46023;BME280;31756;47.936;16.224;2023-01-28T04:59:08;99004.69;;;-2.16;100.00
46023;BME280;31756;47.936;16.224;2023-01-28T05:01:34;99038.13;;;-1.95;100.00
46023;BME280;31756;47.936;16.224;2023-01-28T05:04:00;99044.88;;;-1.94;100.00
46023;BME280;31756;47.936;16.224;2023-01-28T05:06:31;99005.97;;;-2.05;100.00
46023;BME280;31756;47.936;16.224;2023-01-28T05:09:01;99040.09;;;-1.88;100.00
46023;BME280;31756;47.936;16.224;2023-01-28T05:11:28;99046.06;;;-1.85;100.00
46023;BME280;31756;47.936;16.224;2023-01-28T05:13:58;99017.03;;;-2.00;100.00
46023;BME280;31756;47.936;16.224;2023-01-28T05:16:29;99034.03;;;-1.93;100.00
46023;BME280;31756;47.936;16.224;2023-01-28T05:18:56;99025.53;;;-1.97;100.00
46023;BME280;31756;47.936;16.224;2023-01-28T05:21:22;99036.03;;;-1.85;100.00
46023;BME280;31756;47.936;16.224;2023-01-28T05:23:54;99032.59;;;-1.87;100.00
46023;BME280;31756;47.936;16.224;2023-01-28T05:26:20;99030.06;;;-1.87;100.00
46023;BME280;31756;47.936;16.224;2023-01-28T05:28:46;99040.19;;;-1.85;100.00
46023;BME280;31756;47.936;16.224;2023-01-28T05:31:11;99040.13;;;-1.87;100.00
46023;BME280;31756;47.936;16.224;2023-01-28T05:33:37;99043.50;;;-1.86;100.00
46023;BME280;31756;47.936;16.224;2023-01-28T05:36:06;99029.50;;;-1.79;100.00
46023;BME280;31756;47.936;16.224;2023-01-28T05:38:32;99002.75;;;-2.01;100.00
46023;BME280;31756;47.936;16.224;2023-01-28T05:40:57;99013.59;;;-2.02;100.00
46023;BME280;31756;47.936;16.224;2023-01-28T05:43:23;99041.72;;;-1.89;100.00
46023;BME280;31756;47.936;16.224;2023-01-28T05:46:12;99027.47;;;-1.90;100.00
46023;BME280;31756;47.936;16.224;2023-01-28T05:49:16;99016.28;;;-1.98;100.00
46023;BME280;31756;47.936;16.224;2023-01-28T05:52:01;99037.50;;;-1.90;100.00
46023;BME280;31756;47.936;16.224;2023-01-28T05:54:29;99026.31;;;-1.98;100.00
46023;BME280;31756;47.936;16.224;2023-01-28T05:56:55;99042.63;;;-1.87;100.00
46023;BME280;31756;47.936;16.224;2023-01-28T05:59:21;99035.00;;;-1.90;100.00
46023;BME280;31756;47.936;16.224;2023-01-28T06:01:49;99049.28;;;-1.89;100.00
46023;BME280;31756;47.936;16.224;2023-01-28T06:04:15;99016.72;;;-2.08;100.00
46023;BME280;31756;47.936;16.224;2023-01-28T06:06:44;99047.50;;;-1.91;100.00
46023;BME280;31756;47.936;16.224;2023-01-28T06:09:09;99058.72;;;-1.81;100.00
46023;BME280;31756;47.936;16.224;2023-01-28T06:11:35;99047.66;;;-1.87;100.00
46023;BME280;31756;47.936;16.224;2023-01-28T06:14:03;99055.31;;;-1.83;100.00
46023;BME280;31756;47.936;16.224;2023-01-28T06:16:46;99051.09;;;-1.85;100.00
46023;BME280;31756;47.936;16.224;2023-01-28T06:19:44;99053.59;;;-1.85;100.00
46023;BME280;31756;47.936;16.224;2023-01-28T06:22:09;99033.00;;;-1.98;100.00
46023;BME280;31756;47.936;16.224;2023-01-28T06:24:35;99053.94;;;-1.75;100.00
46023;BME280;31756;47.936;16.224;2023-01-28T06:27:01;99061.47;;;-1.75;100.00
46023;BME280;31756;47.936;16.224;2023-01-28T06:29:26;99041.56;;;-1.93;100.00
46023;BME280;31756;47.936;16.224;2023-01-28T06:31:52;99064.63;;;-1.81;100.00
46023;BME280;31756;47.936;16.224;2023-01-28T06:34:18;99048.41;;;-1.89;100.00
46023;BME280;31756;47.936;16.224;2023-01-28T06:36:44;99074.91;;;-1.75;100.00
46023;BME280;31756;47.936;16.224;2023-01-28T06:39:10;99049.16;;;-1.92;100.00
46023;BME280;31756;47.936;16.224;2023-01-28T06:41:36;99077.34;;;-1.76;100.00
46023;BME280;31756;47.936;16.224;2023-01-28T06:44:01;99079.19;;;-1.72;100.00
46023;BME280;31756;47.936;16.224;2023-01-28T06:46:27;99083.41;;;-1.71;100.00
46023;BME280;31756;47.936;16.224;2023-01-28T06:48:53;99080.97;;;-1.70;100.00
46023;BME280;31756;47.936;16.224;2023-01-28T06:51:18;99081.00;;;-1.68;100.00
46023;BME280;31756;47.936;16.224;2023-01-28T06:53:44;99093.56;;;-1.68;100.00
46023;BME280;31756;47.936;16.224;2023-01-28T06:56:10;99084.19;;;-1.72;100.00
46023;BME280;31756;47.936;16.224;2023-01-28T06:58:35;99072.22;;;-1.79;100.00
46023;BME280;31756;47.936;16.224;2023-01-28T07:01:01;99093.63;;;-1.67;100.00
46023;BME280;31756;47.936;16.224;2023-01-28T07:03:28;99076.72;;;-1.71;100.00
46023;BME280;31756;47.936;16.224;2023-01-28T07:05:53;99101.91;;;-1.69;100.00
46023;BME280;31756;47.936;16.224;2023-01-28T07:08:20;99095.72;;;-1.55;100.00
46023;BME280;31756;47.936;16.224;2023-01-28T07:10:50;99097.44;;;-1.54;100.00
46023;BME280;31756;47.936;16.224;2023-01-28T07:13:15;99104.75;;;-1.60;100.00
46023;BME280;31756;47.936;16.224;2023-01-28T07:15:41;99103.09;;;-1.60;100.00
46023;BME280;31756;47.936;16.224;2023-01-28T07:18:07;99071.88;;;-1.89;100.00
46023;BME280;31756;47.936;16.224;2023-01-28T07:20:32;99104.31;;;-1.72;100.00
46023;BME280;31756;47.936;16.224;2023-01-28T07:22:58;99076.22;;;-1.85;100.00
46023;BME280;31756;47.936;16.224;2023-01-28T07:25:24;99079.50;;;-1.87;100.00
46023;BME280;31756;47.936;16.224;2023-01-28T07:27:51;99110.97;;;-1.73;100.00
46023;BME280;31756;47.936;16.224;2023-01-28T07:30:19;99104.56;;;-1.65;100.00
46023;BME280;31756;47.936;16.224;2023-01-28T07:32:45;99097.91;;;-1.64;100.00
46023;BME280;31756;47.936;16.224;2023-01-28T07:35:11;99105.69;;;-1.58;100.00
46023;BME280;31756;47.936;16.224;2023-01-28T07:37:37;99094.50;;;-1.66;100.00
46023;BME280;31756;47.936;16.224;2023-01-28T07:40:02;99106.91;;;-1.69;100.00
46023;BME280;31756;47.936;16.224;2023-01-28T07:42:28;99107.78;;;-1.69;100.00
46023;BME280;31756;47.936;16.224;2023-01-28T07:44:53;99107.91;;;-1.66;100.00
46023;BME280;31756;47.936;16.224;2023-01-28T07:47:19;99101.38;;;-1.61;100.00
46023;BME280;31756;47.936;16.224;2023-01-28T07:49:45;99114.19;;;-1.55;100.00
46023;BME280;31756;47.936;16.224;2023-01-28T07:52:10;99125.03;;;-1.56;100.00
46023;BME280;31756;47.936;16.224;2023-01-28T07:54:36;99124.41;;;-1.50;100.00
46023;BME280;31756;47.936;16.224;2023-01-28T07:57:06;99130.16;;;-1.53;100.00
46023;BME280;31756;47.936;16.224;2023-01-28T07:59:34;99123.63;;;-1.48;100.00
46023;BME280;31756;47.936;16.224;2023-01-28T08:02:00;99107.94;;;-1.64;100.00
46023;BME280;31756;47.936;16.224;2023-01-28T08:04:26;99133.75;;;-1.46;100.00
46023;BME280;31756;47.936;16.224;2023-01-28T08:06:51;99116.97;;;-1.69;100.00
46023;BME280;31756;47.936;16.224;2023-01-28T08:09:17;99142.63;;;-1.56;100.00
46023;BME280;31756;47.936;16.224;2023-01-28T08:11:43;99122.81;;;-1.70;100.00
46023;BME280;31756;47.936;16.224;2023-01-28T08:14:09;99142.16;;;-1.46;100.00
46023;BME280;31756;47.936;16.224;2023-01-28T08:16:35;99145.56;;;-1.44;100.00
46023;BME280;31756;47.936;16.224;2023-01-28T08:19:01;99148.16;;;-1.42;100.00
46023;BME280;31756;47.936;16.224;2023-01-28T08:21:27;99143.03;;;-1.45;100.00
46023;BME280;31756;47.936;16.224;2023-01-28T08:23:53;99135.84;;;-1.34;100.00
46023;BME280;31756;47.936;16.224;2023-01-28T08:26:19;99148.00;;;-1.23;100.00
46023;BME280;31756;47.936;16.224;2023-01-28T08:28:45;99153.44;;;-1.12;100.00
46023;BME280;31756;47.936;16.224;2023-01-28T08:31:10;99148.41;;;-1.12;100.00
46023;BME280;31756;47.936;16.224;2023-01-28T08:33:39;99137.06;;;-1.25;100.00
46023;BME280;31756;47.936;16.224;2023-01-28T08:36:04;99156.56;;;-1.18;100.00
46023;BME280;31756;47.936;16.224;2023-01-28T08:38:30;99159.22;;;-1.15;100.00
46023;BME280;31756;47.936;16.224;2023-01-28T08:40:56;99159.88;;;-1.19;100.00
46023;BME280;31756;47.936;16.224;2023-01-28T08:43:23;99158.28;;;-1.17;100.00
46023;BME280;31756;47.936;16.224;2023-01-28T08:45:49;99159.94;;;-1.17;100.00
46023;BME280;31756;47.936;16.224;2023-01-28T08:48:16;99164.19;;;-1.16;100.00
46023;BME280;31756;47.936;16.224;2023-01-28T08:50:42;99153.34;;;-1.15;100.00
46023;BME280;31756;47.936;16.224;2023-01-28T08:53:13;99163.66;;;-1.08;100.00
46023;BME280;31756;47.936;16.224;2023-01-28T08:55:40;99136.53;;;-1.16;100.00
46023;BME280;31756;47.936;16.224;2023-01-28T08:58:09;99170.03;;;-0.94;100.00
46023;BME280;31756;47.936;16.224;2023-01-28T09:00:35;99167.56;;;-0.92;100.00
46023;BME280;31756;47.936;16.224;2023-01-28T09:03:01;99171.16;;;-0.85;100.00
46023;BME280;31756;47.936;16.224;2023-01-28T09:05:29;99167.00;;;-0.83;100.00
46023;BME280;31756;47.936;16.224;2023-01-28T09:08:04;99168.13;;;-0.75;100.00
46023;BME280;31756;47.936;16.224;2023-01-28T09:10:30;99168.72;;;-0.82;100.00
46023;BME280;31756;47.936;16.224;2023-01-28T09:12:55;99184.94;;;-0.74;100.00
46023;BME280;31756;47.936;16.224;2023-01-28T09:15:21;99173.53;;;-0.65;100.00
46023;BME280;31756;47.936;16.224;2023-01-28T09:17:46;99180.56;;;-0.56;100.00
46023;BME280;31756;47.936;16.224;2023-01-28T09:20:12;99187.56;;;-0.71;100.00
46023;BME280;31756;47.936;16.224;2023-01-28T09:22:38;99166.78;;;-0.66;100.00
46023;BME280;31756;47.936;16.224;2023-01-28T09:25:04;99182.94;;;-0.59;100.00
46023;BME280;31756;47.936;16.224;2023-01-28T09:27:30;99187.34;;;-0.54;100.00
46023;BME280;31756;47.936;16.224;2023-01-28T09:29:56;99179.53;;;-0.61;100.00
46023;BME280;31756;47.936;16.224;2023-01-28T09:32:22;99179.06;;;-0.50;100.00
46023;BME280;31756;47.936;16.224;2023-01-28T09:34:49;99187.88;;;-0.38;100.00
46023;BME280;31756;47.936;16.224;2023-01-28T09:37:14;99156.09;;;-0.59;100.00
46023;BME280;31756;47.936;16.224;2023-01-28T09:39:41;99188.97;;;-0.30;100.00
46023;BME280;31756;47.936;16.224;2023-01-28T09:47:56;99193.59;;;-0.17;100.00
46023;BME280;31756;47.936;16.224;2023-01-28T09:50:10;99199.22;;;-0.24;100.00
46023;BME280;31756;47.936;16.224;2023-01-28T09:52:36;99188.50;;;-0.19;100.00
46023;BME280;31756;47.936;16.224;2023-01-28T09:57:39;99191.19;;;-0.13;100.00
46023;BME280;31756;47.936;16.224;2023-01-28T10:00:14;99177.63;;;-0.18;100.00
46023;BME280;31756;47.936;16.224;2023-01-28T10:02:45;99179.81;;;-0.02;100.00
46023;BME280;31756;47.936;16.224;2023-01-28T10:05:16;99186.88;;;-0.17;100.00
46023;BME280;31756;47.936;16.224;2023-01-28T10:10:53;99186.16;;;-0.13;100.00
46023;BME280;31756;47.936;16.224;2023-01-28T10:13:27;99183.22;;;0.00;100.00
46023;BME280;31756;47.936;16.224;2023-01-28T10:19:01;99186.16;;;-0.13;100.00
46023;BME280;31756;47.936;16.224;2023-01-28T10:21:36;99181.00;;;-0.17;100.00
46023;BME280;31756;47.936;16.224;2023-01-28T10:24:17;99178.06;;;-0.29;100.00
46023;BME280;31756;47.936;16.224;2023-01-28T10:26:46;99170.66;;;-0.25;100.00
46023;BME280;31756;47.936;16.224;2023-01-28T10:29:22;99183.22;;;-0.26;100.00
46023;BME280;31756;47.936;16.224;2023-01-28T10:31:56;99176.84;;;-0.15;100.00
46023;BME280;31756;47.936;16.224;2023-01-28T10:34:23;99174.09;;;-0.48;100.00
46023;BME280;31756;47.936;16.224;2023-01-28T10:36:49;99180.25;;;-0.40;100.00
46023;BME280;31756;47.936;16.224;2023-01-28T10:39:16;99178.59;;;-0.39;100.00
46023;BME280;31756;47.936;16.224;2023-01-28T10:41:42;99179.03;;;-0.26;100.00
46023;BME280;31756;47.936;16.224;2023-01-28T10:44:19;99181.88;;;-0.15;100.00
46023;BME280;31756;47.936;16.224;2023-01-28T10:46:46;99178.22;;;-0.25;100.00
46023;BME280;31756;47.936;16.224;2023-01-28T10:51:40;99181.56;;;-0.26;100.00
46023;BME280;31756;47.936;16.224;2023-01-28T10:54:23;99179.84;;;-0.27;100.00
46023;BME280;31756;47.936;16.224;2023-01-28T10:56:51;99164.38;;;-0.37;100.00
46023;BME280;31756;47.936;16.224;2023-01-28T10:59:19;99168.66;;;-0.35;100.00
46023;BME280;31756;47.936;16.224;2023-01-28T11:01:50;99174.75;;;-0.28;100.00
46023;BME280;31756;47.936;16.224;2023-01-28T11:04:25;99172.38;;;-0.24;100.00
46023;BME280;31756;47.936;16.224;2023-01-28T11:06:56;99169.50;;;-0.09;100.00
46023;BME280;31756;47.936;16.224;2023-01-28T11:09:22;99168.66;;;-0.08;100.00
46023;BME280;31756;47.936;16.224;2023-01-28T11:11:49;99180.09;;;0.08;100.00
46023;BME280;31756;47.936;16.224;2023-01-28T11:14:21;99180.81;;;0.04;100.00
46023;BME280;31756;47.936;16.224;2023-01-28T11:16:47;99181.22;;;0.17;100.00
46023;BME280;31756;47.936;16.224;2023-01-28T11:19:13;99179.25;;;0.07;100.00
46023;BME280;31756;47.936;16.224;2023-01-28T11:21:47;99169.16;;;0.07;100.00
46023;BME280;31756;47.936;16.224;2023-01-28T11:24:13;99175.22;;;0.14;100.00
46023;BME280;31756;47.936;16.224;2023-01-28T11:26:44;99174.84;;;0.02;100.00
46023;BME280;31756;47.936;16.224;2023-01-28T11:29:21;99183.00;;;0.20;100.00
46023;BME280;31756;47.936;16.224;2023-01-28T11:31:47;99178.38;;;0.07;100.00
46023;BME280;31756;47.936;16.224;2023-01-28T11:34:14;99174.06;;;0.03;100.00
46023;BME280;31756;47.936;16.224;2023-01-28T11:36:48;99179.81;;;-0.02;100.00
46023;BME280;31756;47.936;16.224;2023-01-28T11:39:19;99174.84;;;0.00;100.00
46023;BME280;31756;47.936;16.224;2023-01-28T11:41:45;99170.19;;;0.14;100.00
46023;BME280;31756;47.936;16.224;2023-01-28T11:44:15;99181.56;;;0.28;100.00
46023;BME280;31756;47.936;16.224;2023-01-28T11:49:13;99168.03;;;0.26;100.00
46023;BME280;31756;47.936;16.224;2023-01-28T11:54:27;99172.28;;;0.27;100.00
46023;BME280;31756;47.936;16.224;2023-01-28T12:02:00;99170.81;;;0.33;100.00
46023;BME280;31756;47.936;16.224;2023-01-28T12:09:48;99170.31;;;0.45;100.00
46023;BME280;31756;47.936;16.224;2023-01-28T12:15:18;99167.59;;;0.39;100.00
46023;BME280;31756;47.936;16.224;2023-01-28T12:20:28;99179.19;;;0.61;100.00
46023;BME280;31756;47.936;16.224;2023-01-28T12:30:58;99180.47;;;0.47;100.00
46023;BME280;31756;47.936;16.224;2023-01-28T12:41:13;99172.53;;;0.08;100.00
46023;BME280;31756;47.936;16.224;2023-01-28T12:49:02;99181.41;;;-0.04;100.00
46023;BME280;31756;47.936;16.224;2023-01-28T12:51:32;99176.72;;;0.07;100.00
46023;BME280;31756;47.936;16.224;2023-01-28T12:54:03;99183.50;;;0.10;100.00
46023;BME280;31756;47.936;16.224;2023-01-28T12:56:33;99184.09;;;0.01;100.00
46023;BME280;31756;47.936;16.224;2023-01-28T12:59:09;99185.81;;;0.02;100.00
46023;BME280;31756;47.936;16.224;2023-01-28T13:01:44;99183.38;;;0.05;100.00
46023;BME280;31756;47.936;16.224;2023-01-28T13:06:48;99180.84;;;0.05;100.00
46023;BME280;31756;47.936;16.224;2023-01-28T13:09:19;99187.44;;;0.00;100.00
46023;BME280;31756;47.936;16.224;2023-01-28T13:11:46;99189.25;;;0.04;100.00
46023;BME280;31756;47.936;16.224;2023-01-28T13:14:12;99192.50;;;0.02;100.00
46023;BME280;31756;47.936;16.224;2023-01-28T13:16:38;99192.66;;;0.06;100.00
46023;BME280;31756;47.936;16.224;2023-01-28T13:19:23;99198.47;;;0.04;100.00
46023;BME280;31756;47.936;16.224;2023-01-28T13:21:49;99204.75;;;0.16;100.00
46023;BME280;31756;47.936;16.224;2023-01-28T13:31:37;99218.72;;;0.07;100.00
46023;BME280;31756;47.936;16.224;2023-01-28T13:34:06;99213.53;;;0.02;100.00
46023;BME280;31756;47.936;16.224;2023-01-28T13:39:03;99228.00;;;0.08;100.00
46023;BME280;31756;47.936;16.224;2023-01-28T13:41:36;99223.59;;;0.02;100.00
46023;BME280;31756;47.936;16.224;2023-01-28T13:44:02;99231.81;;;-0.04;100.00
46023;BME280;31756;47.936;16.224;2023-01-28T13:46:29;99225.63;;;0.12;100.00
46023;BME280;31756;47.936;16.224;2023-01-28T13:48:56;99227.75;;;0.00;100.00
46023;BME280;31756;47.936;16.224;2023-01-28T13:51:23;99234.63;;;0.06;100.00
46023;BME280;31756;47.936;16.224;2023-01-28T13:54:09;99226.91;;;-0.01;100.00
46023;BME280;31756;47.936;16.224;2023-01-28T13:56:41;99225.66;;;-0.12;100.00
46023;BME280;31756;47.936;16.224;2023-01-28T14:17:51;99242.16;;;0.31;100.00
46023;BME280;31756;47.936;16.224;2023-01-28T14:20:22;99242.75;;;0.49;100.00
46023;BME280;31756;47.936;16.224;2023-01-28T14:22:49;99246.13;;;0.50;100.00
46023;BME280;31756;47.936;16.224;2023-01-28T14:25:19;99255.25;;;0.19;100.00
46023;BME280;31756;47.936;16.224;2023-01-28T14:27:50;99252.91;;;-0.02;100.00
46023;BME280;31756;47.936;16.224;2023-01-28T14:30:19;99254.53;;;0.23;100.00
46023;BME280;31756;47.936;16.224;2023-01-28T14:32:49;99247.63;;;0.44;100.00
46023;BME280;31756;47.936;16.224;2023-01-28T14:35:23;99252.97;;;0.54;100.00
46023;BME280;31756;47.936;16.224;2023-01-28T14:37:51;99257.22;;;0.83;100.00
46023;BME280;31756;47.936;16.224;2023-01-28T14:40:16;99259.69;;;0.81;100.00
46023;BME280;31756;47.936;16.224;2023-01-28T14:42:44;99254.78;;;0.58;100.00
46023;BME280;31756;47.936;16.224;2023-01-28T14:55:49;99255.00;;;0.65;100.00
46023;BME280;31756;47.936;16.224;2023-01-28T14:58:19;99261.41;;;0.56;100.00